sensor_id;sensor_type;location;lat;lon;timestamp;P1;durP1;ratioP1;P2;durP2;ratioP2
15748;SDS011;7976;52.526;13.326;2023-03-01T00:01:29;30.98;;;13.02;;
15748;SDS011;7976;52.526;13.326;2023-03-01T00:03:59;27.50;;;12.13;;
15748;SDS011;7976;52.526;13.326;2023-03-01T00:06:26;31.40;;;11.63;;
15748;SDS011;7976;52.526;13.326;2023-03-01T00:08:53;27.67;;;12.30;;
15748;SDS011;7976;52.526;13.326;2023-03-01T00:11:21;27.37;;;11.83;;
15748;SDS011;7976;52.526;13.326;2023-03-01T00:13:52;28.75;;;11.73;;
15748;SDS011;7976;52.526;13.326;2023-03-01T00:16:22;28.93;;;12.50;;
15748;SDS011;7976;52.526;13.326;2023-03-01T00:18:51;30.30;;;12.37;;
15748;SDS011;7976;52.526;13.326;2023-03-01T00:21:21;35.00;;;13.97;;
15748;SDS011;7976;52.526;13.326;2023-03-01T00:23:49;28.67;;;12.33;;
15748;SDS011;7976;52.526;13.326;2023-03-01T00:26:17;34.10;;;14.23;;
15748;SDS011;7976;52.526;13.326;2023-03-01T00:28:46;29.67;;;14.13;;
15748;SDS011;7976;52.526;13.326;2023-03-01T00:31:14;38.17;;;16.88;;
15748;SDS011;7976;52.526;13.326;2023-03-01T00:33:44;37.80;;;14.60;;
15748;SDS011;7976;52.526;13.326;2023-03-01T00:36:13;39.60;;;18.33;;
15748;SDS011;7976;52.526;13.326;2023-03-01T00:38:44;36.23;;;16.43;;
15748;SDS011;7976;52.526;13.326;2023-03-01T00:41:12;39.33;;;15.43;;
15748;SDS011;7976;52.526;13.326;2023-03-01T00:43:42;33.70;;;13.40;;
15748;SDS011;7976;52.526;13.326;2023-03-01T00:46:11;30.83;;;13.30;;
15748;SDS011;7976;52.526;13.326;2023-03-01T00:48:40;30.33;;;13.47;;
15748;SDS011;7976;52.526;13.326;2023-03-01T00:51:08;38.90;;;15.67;;
15748;SDS011;7976;52.526;13.326;2023-03-01T00:53:38;35.70;;;15.30;;
15748;SDS011;7976;52.526;13.326;2023-03-01T00:56:08;28.23;;;12.23;;
15748;SDS011;7976;52.526;13.326;2023-03-01T00:58:37;29.10;;;12.27;;
15748;SDS011;7976;52.526;13.326;2023-03-01T01:01:07;33.53;;;12.63;;
15748;SDS011;7976;52.526;13.326;2023-03-01T01:03:42;31.10;;;12.80;;
15748;SDS011;7976;52.526;13.326;2023-03-01T01:06:18;31.77;;;12.80;;
15748;SDS011;7976;52.526;13.326;2023-03-01T01:08:47;32.10;;;12.57;;
15748;SDS011;7976;52.526;13.326;2023-03-01T01:11:17;29.50;;;12.57;;
15748;SDS011;7976;52.526;13.326;2023-03-01T01:13:45;38.33;;;14.33;;
15748;SDS011;7976;52.526;13.326;2023-03-01T01:16:14;33.23;;;13.50;;
15748;SDS011;7976;52.526;13.326;2023-03-01T01:18:42;30.63;;;13.37;;
15748;SDS011;7976;52.526;13.326;2023-03-01T01:21:09;27.77;;;11.97;;
15748;SDS011;7976;52.526;13.326;2023-03-01T01:23:40;35.87;;;14.43;;
15748;SDS011;7976;52.526;13.326;2023-03-01T01:26:10;32.83;;;12.33;;
15748;SDS011;7976;52.526;13.326;2023-03-01T01:28:41;31.03;;;12.63;;
15748;SDS011;7976;52.526;13.326;2023-03-01T01:31:08;26.10;;;12.03;;
15748;SDS011;7976;52.526;13.326;2023-03-01T01:33:35;28.90;;;12.80;;
15748;SDS011;7976;52.526;13.326;2023-03-01T01:36:03;30.87;;;13.10;;
15748;SDS011;7976;52.526;13.326;2023-03-01T01:38:31;30.13;;;12.60;;
15748;SDS011;7976;52.526;13.326;2023-03-01T01:40:59;26.43;;;11.70;;
15748;SDS011;7976;52.526;13.326;2023-03-01T01:43:27;36.50;;;12.73;;
15748;SDS011;7976;52.526;13.326;2023-03-01T01:46:01;27.37;;;12.53;;
15748;SDS011;7976;52.526;13.326;2023-03-01T01:48:32;32.53;;;12.83;;
15748;SDS011;7976;52.526;13.326;2023-03-01T01:51:07;32.10;;;14.13;;
15748;SDS011;7976;52.526;13.326;2023-03-01T01:53:39;33.30;;;12.47;;
15748;SDS011;7976;52.526;13.326;2023-03-01T01:56:11;30.23;;;12.80;;
15748;SDS011;7976;52.526;13.326;2023-03-01T01:58:41;29.13;;;13.38;;
15748;SDS011;7976;52.526;13.326;2023-03-01T02:01:11;31.07;;;12.30;;
15748;SDS011;7976;52.526;13.326;2023-03-01T02:03:38;32.13;;;11.63;;
15748;SDS011;7976;52.526;13.326;2023-03-01T02:06:12;26.50;;;12.27;;
15748;SDS011;7976;52.526;13.326;2023-03-01T02:08:48;32.93;;;12.67;;
15748;SDS011;7976;52.526;13.326;2023-03-01T02:11:18;27.43;;;11.43;;
15748;SDS011;7976;52.526;13.326;2023-03-01T02:13:47;29.73;;;11.67;;
15748;SDS011;7976;52.526;13.326;2023-03-01T02:16:16;24.00;;;11.37;;
15748;SDS011;7976;52.526;13.326;2023-03-01T02:18:44;25.07;;;11.43;;
15748;SDS011;7976;52.526;13.326;2023-03-01T02:21:14;28.03;;;11.57;;
15748;SDS011;7976;52.526;13.326;2023-03-01T02:24:10;28.73;;;11.37;;
15748;SDS011;7976;52.526;13.326;2023-03-01T02:26:55;27.83;;;11.07;;
15748;SDS011;7976;52.526;13.326;2023-03-01T02:29:26;23.87;;;11.23;;
15748;SDS011;7976;52.526;13.326;2023-03-01T02:31:54;29.67;;;11.37;;
15748;SDS011;7976;52.526;13.326;2023-03-01T02:34:26;26.97;;;11.07;;
15748;SDS011;7976;52.526;13.326;2023-03-01T02:36:55;26.63;;;11.40;;
15748;SDS011;7976;52.526;13.326;2023-03-01T02:39:30;25.23;;;11.20;;
15748;SDS011;7976;52.526;13.326;2023-03-01T02:42:07;28.50;;;11.07;;
15748;SDS011;7976;52.526;13.326;2023-03-01T02:44:40;29.90;;;11.00;;
15748;SDS011;7976;52.526;13.326;2023-03-01T02:47:06;30.60;;;11.40;;
15748;SDS011;7976;52.526;13.326;2023-03-01T02:49:34;27.77;;;11.83;;
15748;SDS011;7976;52.526;13.326;2023-03-01T02:55:12;27.17;;;11.53;;
15748;SDS011;7976;52.526;13.326;2023-03-01T02:57:43;28.07;;;11.27;;
15748;SDS011;7976;52.526;13.326;2023-03-01T03:00:18;29.13;;;11.93;;
15748;SDS011;7976;52.526;13.326;2023-03-01T03:02:51;27.47;;;11.90;;
15748;SDS011;7976;52.526;13.326;2023-03-01T03:05:23;29.70;;;11.93;;
15748;SDS011;7976;52.526;13.326;2023-03-01T03:07:56;26.67;;;10.67;;
15748;SDS011;7976;52.526;13.326;2023-03-01T03:10:26;29.27;;;11.00;;
15748;SDS011;7976;52.526;13.326;2023-03-01T03:12:57;30.27;;;13.03;;
15748;SDS011;7976;52.526;13.326;2023-03-01T03:15:27;29.20;;;11.77;;
15748;SDS011;7976;52.526;13.326;2023-03-01T03:17:55;32.87;;;12.30;;
15748;SDS011;7976;52.526;13.326;2023-03-01T03:20:25;29.13;;;12.23;;
15748;SDS011;7976;52.526;13.326;2023-03-01T03:22:54;26.23;;;11.23;;
15748;SDS011;7976;52.526;13.326;2023-03-01T03:25:24;54.23;;;19.93;;
15748;SDS011;7976;52.526;13.326;2023-03-01T03:27:53;36.57;;;14.10;;
15748;SDS011;7976;52.526;13.326;2023-03-01T03:30:24;37.00;;;14.83;;
15748;SDS011;7976;52.526;13.326;2023-03-01T03:32:55;40.30;;;15.07;;
15748;SDS011;7976;52.526;13.326;2023-03-01T03:35:26;31.43;;;13.30;;
15748;SDS011;7976;52.526;13.326;2023-03-01T03:37:56;30.93;;;13.07;;
15748;SDS011;7976;52.526;13.326;2023-03-01T03:40:29;31.33;;;12.70;;
15748;SDS011;7976;52.526;13.326;2023-03-01T03:42:58;30.47;;;12.60;;
15748;SDS011;7976;52.526;13.326;2023-03-01T03:45:25;29.47;;;12.07;;
15748;SDS011;7976;52.526;13.326;2023-03-01T03:47:53;33.40;;;13.43;;
15748;SDS011;7976;52.526;13.326;2023-03-01T03:50:20;33.83;;;12.77;;
15748;SDS011;7976;52.526;13.326;2023-03-01T03:52:47;31.63;;;12.23;;
15748;SDS011;7976;52.526;13.326;2023-03-01T03:55:13;28.13;;;13.03;;
15748;SDS011;7976;52.526;13.326;2023-03-01T03:57:45;33.03;;;12.40;;
15748;SDS011;7976;52.526;13.326;2023-03-01T04:00:20;32.97;;;12.47;;
15748;SDS011;7976;52.526;13.326;2023-03-01T04:02:49;33.27;;;13.27;;
15748;SDS011;7976;52.526;13.326;2023-03-01T04:05:24;31.13;;;13.00;;
15748;SDS011;7976;52.526;13.326;2023-03-01T04:07:51;30.87;;;13.00;;
15748;SDS011;7976;52.526;13.326;2023-03-01T04:10:26;28.13;;;13.00;;
15748;SDS011;7976;52.526;13.326;2023-03-01T04:12:54;29.67;;;11.87;;
15748;SDS011;7976;52.526;13.326;2023-03-01T04:15:22;32.10;;;12.57;;
15748;SDS011;7976;52.526;13.326;2023-03-01T04:17:51;30.17;;;13.67;;
15748;SDS011;7976;52.526;13.326;2023-03-01T04:20:20;31.13;;;13.83;;
15748;SDS011;7976;52.526;13.326;2023-03-01T04:22:52;30.90;;;12.50;;
15748;SDS011;7976;52.526;13.326;2023-03-01T04:25:23;31.43;;;12.63;;
15748;SDS011;7976;52.526;13.326;2023-03-01T04:27:51;30.73;;;12.97;;
15748;SDS011;7976;52.526;13.326;2023-03-01T04:30:18;28.63;;;11.53;;
15748;SDS011;7976;52.526;13.326;2023-03-01T04:32:45;31.20;;;12.53;;
15748;SDS011;7976;52.526;13.326;2023-03-01T04:35:11;30.40;;;13.07;;
15748;SDS011;7976;52.526;13.326;2023-03-01T04:37:43;31.37;;;12.20;;
15748;SDS011;7976;52.526;13.326;2023-03-01T04:40:10;33.60;;;12.70;;
15748;SDS011;7976;52.526;13.326;2023-03-01T04:42:41;31.57;;;12.20;;
15748;SDS011;7976;52.526;13.326;2023-03-01T04:45:08;27.23;;;11.70;;
15748;SDS011;7976;52.526;13.326;2023-03-01T04:47:38;39.73;;;17.23;;
15748;SDS011;7976;52.526;13.326;2023-03-01T04:50:11;30.87;;;13.53;;
15748;SDS011;7976;52.526;13.326;2023-03-01T04:52:42;34.63;;;12.83;;
15748;SDS011;7976;52.526;13.326;2023-03-01T04:55:10;27.03;;;11.80;;
15748;SDS011;7976;52.526;13.326;2023-03-01T04:57:38;53.17;;;22.27;;
15748;SDS011;7976;52.526;13.326;2023-03-01T05:00:08;36.90;;;15.23;;
15748;SDS011;7976;52.526;13.326;2023-03-01T05:02:46;26.17;;;11.77;;
15748;SDS011;7976;52.526;13.326;2023-03-01T05:05:21;24.63;;;11.43;;
15748;SDS011;7976;52.526;13.326;2023-03-01T05:07:56;25.80;;;11.07;;
15748;SDS011;7976;52.526;13.326;2023-03-01T05:10:25;25.17;;;10.73;;
15748;SDS011;7976;52.526;13.326;2023-03-01T05:12:55;22.87;;;10.57;;
15748;SDS011;7976;52.526;13.326;2023-03-01T05:15:23;24.23;;;10.23;;
15748;SDS011;7976;52.526;13.326;2023-03-01T05:17:50;23.40;;;10.27;;
15748;SDS011;7976;52.526;13.326;2023-03-01T05:20:17;22.80;;;10.23;;
15748;SDS011;7976;52.526;13.326;2023-03-01T05:22:47;25.97;;;10.63;;
15748;SDS011;7976;52.526;13.326;2023-03-01T05:25:16;26.50;;;11.57;;
15748;SDS011;7976;52.526;13.326;2023-03-01T05:27:43;23.87;;;10.33;;
15748;SDS011;7976;52.526;13.326;2023-03-01T05:30:10;23.57;;;9.53;;
15748;SDS011;7976;52.526;13.326;2023-03-01T05:32:42;26.57;;;11.80;;
15748;SDS011;7976;52.526;13.326;2023-03-01T05:35:12;27.17;;;11.47;;
15748;SDS011;7976;52.526;13.326;2023-03-01T05:37:41;27.47;;;11.37;;
15748;SDS011;7976;52.526;13.326;2023-03-01T05:40:10;26.80;;;11.97;;
15748;SDS011;7976;52.526;13.326;2023-03-01T05:42:43;30.93;;;13.03;;
15748;SDS011;7976;52.526;13.326;2023-03-01T05:45:12;30.47;;;11.00;;
15748;SDS011;7976;52.526;13.326;2023-03-01T05:47:42;24.90;;;10.00;;
15748;SDS011;7976;52.526;13.326;2023-03-01T05:50:11;31.07;;;10.47;;
15748;SDS011;7976;52.526;13.326;2023-03-01T05:52:44;24.77;;;11.03;;
15748;SDS011;7976;52.526;13.326;2023-03-01T05:55:13;25.73;;;10.50;;
15748;SDS011;7976;52.526;13.326;2023-03-01T05:57:41;26.23;;;9.87;;
15748;SDS011;7976;52.526;13.326;2023-03-01T06:00:10;27.77;;;11.53;;
15748;SDS011;7976;52.526;13.326;2023-03-01T06:02:39;28.87;;;12.23;;
15748;SDS011;7976;52.526;13.326;2023-03-01T06:05:08;27.47;;;12.07;;
15748;SDS011;7976;52.526;13.326;2023-03-01T06:07:36;25.03;;;10.33;;
15748;SDS011;7976;52.526;13.326;2023-03-01T06:10:04;23.93;;;10.23;;
15748;SDS011;7976;52.526;13.326;2023-03-01T06:12:33;26.27;;;10.27;;
15748;SDS011;7976;52.526;13.326;2023-03-01T06:15:04;24.47;;;10.43;;
15748;SDS011;7976;52.526;13.326;2023-03-01T06:17:35;27.83;;;13.60;;
15748;SDS011;7976;52.526;13.326;2023-03-01T06:20:04;25.90;;;11.20;;
15748;SDS011;7976;52.526;13.326;2023-03-01T06:22:35;24.20;;;10.37;;
15748;SDS011;7976;52.526;13.326;2023-03-01T06:25:02;26.43;;;11.67;;
15748;SDS011;7976;52.526;13.326;2023-03-01T06:27:31;30.40;;;10.80;;
15748;SDS011;7976;52.526;13.326;2023-03-01T06:29:58;26.63;;;11.00;;
15748;SDS011;7976;52.526;13.326;2023-03-01T06:32:26;26.93;;;10.27;;
15748;SDS011;7976;52.526;13.326;2023-03-01T06:34:53;25.13;;;12.37;;
15748;SDS011;7976;52.526;13.326;2023-03-01T06:37:20;26.83;;;10.17;;
15748;SDS011;7976;52.526;13.326;2023-03-01T06:39:47;28.10;;;9.87;;
15748;SDS011;7976;52.526;13.326;2023-03-01T06:42:14;24.90;;;11.37;;
15748;SDS011;7976;52.526;13.326;2023-03-01T06:44:41;21.50;;;10.07;;
15748;SDS011;7976;52.526;13.326;2023-03-01T06:47:08;27.17;;;11.37;;
15748;SDS011;7976;52.526;13.326;2023-03-01T06:49:37;28.67;;;12.07;;
15748;SDS011;7976;52.526;13.326;2023-03-01T06:52:04;25.90;;;10.77;;
15748;SDS011;7976;52.526;13.326;2023-03-01T06:54:30;26.90;;;11.50;;
15748;SDS011;7976;52.526;13.326;2023-03-01T06:56:58;26.20;;;10.63;;
15748;SDS011;7976;52.526;13.326;2023-03-01T06:59:24;27.53;;;10.70;;
15748;SDS011;7976;52.526;13.326;2023-03-01T07:01:51;26.73;;;10.17;;
15748;SDS011;7976;52.526;13.326;2023-03-01T07:04:18;26.17;;;10.70;;
15748;SDS011;7976;52.526;13.326;2023-03-01T07:06:46;29.47;;;10.70;;
15748;SDS011;7976;52.526;13.326;2023-03-01T07:09:19;28.23;;;11.00;;
15748;SDS011;7976;52.526;13.326;2023-03-01T07:11:47;28.90;;;11.50;;
15748;SDS011;7976;52.526;13.326;2023-03-01T07:14:13;26.93;;;10.50;;
15748;SDS011;7976;52.526;13.326;2023-03-01T07:16:40;26.23;;;10.43;;
15748;SDS011;7976;52.526;13.326;2023-03-01T07:19:07;27.87;;;10.70;;
15748;SDS011;7976;52.526;13.326;2023-03-01T07:21:34;30.87;;;11.17;;
15748;SDS011;7976;52.526;13.326;2023-03-01T07:24:05;25.17;;;10.67;;
15748;SDS011;7976;52.526;13.326;2023-03-01T07:26:33;25.47;;;10.83;;
15748;SDS011;7976;52.526;13.326;2023-03-01T07:29:00;28.30;;;10.80;;
15748;SDS011;7976;52.526;13.326;2023-03-01T07:31:28;27.20;;;10.97;;
15748;SDS011;7976;52.526;13.326;2023-03-01T07:33:56;27.00;;;11.27;;
15748;SDS011;7976;52.526;13.326;2023-03-01T07:36:23;24.07;;;10.37;;
15748;SDS011;7976;52.526;13.326;2023-03-01T07:38:51;28.90;;;11.17;;
15748;SDS011;7976;52.526;13.326;2023-03-01T07:41:19;29.10;;;10.40;;
15748;SDS011;7976;52.526;13.326;2023-03-01T07:43:46;26.83;;;11.40;;
15748;SDS011;7976;52.526;13.326;2023-03-01T07:46:13;28.20;;;11.67;;
15748;SDS011;7976;52.526;13.326;2023-03-01T07:48:40;29.87;;;12.13;;
15748;SDS011;7976;52.526;13.326;2023-03-01T07:51:07;26.57;;;11.37;;
15748;SDS011;7976;52.526;13.326;2023-03-01T07:53:34;26.53;;;11.13;;
15748;SDS011;7976;52.526;13.326;2023-03-01T07:56:02;24.97;;;10.43;;
15748;SDS011;7976;52.526;13.326;2023-03-01T07:58:33;23.23;;;10.27;;
15748;SDS011;7976;52.526;13.326;2023-03-01T08:01:01;28.10;;;10.83;;
15748;SDS011;7976;52.526;13.326;2023-03-01T08:03:28;27.70;;;11.20;;
15748;SDS011;7976;52.526;13.326;2023-03-01T08:05:55;27.40;;;10.57;;
15748;SDS011;7976;52.526;13.326;2023-03-01T08:08:25;24.40;;;10.63;;
15748;SDS011;7976;52.526;13.326;2023-03-01T08:10:52;29.33;;;10.90;;
15748;SDS011;7976;52.526;13.326;2023-03-01T08:13:22;26.73;;;10.47;;
15748;SDS011;7976;52.526;13.326;2023-03-01T08:15:51;23.35;;;10.52;;
15748;SDS011;7976;52.526;13.326;2023-03-01T08:18:18;22.65;;;9.32;;
15748;SDS011;7976;52.526;13.326;2023-03-01T08:20:47;20.03;;;7.97;;
15748;SDS011;7976;52.526;13.326;2023-03-01T08:23:14;19.47;;;7.30;;
15748;SDS011;7976;52.526;13.326;2023-03-01T08:25:41;18.00;;;7.53;;
15748;SDS011;7976;52.526;13.326;2023-03-01T08:28:07;15.30;;;7.30;;
15748;SDS011;7976;52.526;13.326;2023-03-01T08:30:34;16.03;;;7.30;;
15748;SDS011;7976;52.526;13.326;2023-03-01T08:33:02;19.55;;;7.30;;
15748;SDS011;7976;52.526;13.326;2023-03-01T08:35:29;15.00;;;6.00;;
15748;SDS011;7976;52.526;13.326;2023-03-01T08:37:56;17.47;;;5.93;;
15748;SDS011;7976;52.526;13.326;2023-03-01T08:40:23;16.17;;;6.00;;
15748;SDS011;7976;52.526;13.326;2023-03-01T08:42:50;17.52;;;6.38;;
15748;SDS011;7976;52.526;13.326;2023-03-01T08:45:16;17.98;;;6.40;;
15748;SDS011;7976;52.526;13.326;2023-03-01T08:47:44;19.50;;;6.60;;
15748;SDS011;7976;52.526;13.326;2023-03-01T08:50:12;17.40;;;6.50;;
15748;SDS011;7976;52.526;13.326;2023-03-01T08:52:39;17.17;;;6.10;;
15748;SDS011;7976;52.526;13.326;2023-03-01T08:55:06;17.95;;;5.55;;
15748;SDS011;7976;52.526;13.326;2023-03-01T08:57:34;15.30;;;5.60;;
15748;SDS011;7976;52.526;13.326;2023-03-01T09:00:01;13.32;;;5.10;;
15748;SDS011;7976;52.526;13.326;2023-03-01T09:02:33;15.90;;;5.22;;
15748;SDS011;7976;52.526;13.326;2023-03-01T09:05:00;11.98;;;4.47;;
15748;SDS011;7976;52.526;13.326;2023-03-01T09:07:28;12.45;;;4.28;;
15748;SDS011;7976;52.526;13.326;2023-03-01T09:09:55;16.10;;;4.68;;
15748;SDS011;7976;52.526;13.326;2023-03-01T09:12:22;16.27;;;4.90;;
15748;SDS011;7976;52.526;13.326;2023-03-01T09:14:49;17.70;;;6.55;;
15748;SDS011;7976;52.526;13.326;2023-03-01T09:17:16;13.35;;;5.43;;
15748;SDS011;7976;52.526;13.326;2023-03-01T09:19:46;13.35;;;5.70;;
15748;SDS011;7976;52.526;13.326;2023-03-01T09:22:13;15.60;;;6.15;;
15748;SDS011;7976;52.526;13.326;2023-03-01T09:24:41;14.80;;;5.68;;
15748;SDS011;7976;52.526;13.326;2023-03-01T09:27:08;22.77;;;8.95;;
15748;SDS011;7976;52.526;13.326;2023-03-01T09:29:36;13.27;;;4.90;;
15748;SDS011;7976;52.526;13.326;2023-03-01T09:32:04;13.80;;;5.30;;
15748;SDS011;7976;52.526;13.326;2023-03-01T09:34:33;9.80;;;3.70;;
15748;SDS011;7976;52.526;13.326;2023-03-01T09:37:19;10.35;;;3.80;;
15748;SDS011;7976;52.526;13.326;2023-03-01T09:39:48;13.75;;;4.25;;
15748;SDS011;7976;52.526;13.326;2023-03-01T09:42:15;11.30;;;4.30;;
15748;SDS011;7976;52.526;13.326;2023-03-01T09:44:43;15.30;;;4.95;;
15748;SDS011;7976;52.526;13.326;2023-03-01T09:47:19;11.93;;;4.53;;
15748;SDS011;7976;52.526;13.326;2023-03-01T09:49:57;11.05;;;4.95;;
15748;SDS011;7976;52.526;13.326;2023-03-01T09:52:34;13.02;;;4.85;;
15748;SDS011;7976;52.526;13.326;2023-03-01T09:55:12;13.00;;;5.40;;
15748;SDS011;7976;52.526;13.326;2023-03-01T09:57:45;14.18;;;5.13;;
15748;SDS011;7976;52.526;13.326;2023-03-01T10:00:28;14.65;;;4.80;;
15748;SDS011;7976;52.526;13.326;2023-03-01T10:03:09;13.25;;;4.57;;
15748;SDS011;7976;52.526;13.326;2023-03-01T10:05:47;11.70;;;4.90;;
15748;SDS011;7976;52.526;13.326;2023-03-01T10:08:26;13.07;;;3.97;;
15748;SDS011;7976;52.526;13.326;2023-03-01T10:11:04;14.30;;;4.80;;
15748;SDS011;7976;52.526;13.326;2023-03-01T10:13:45;13.63;;;4.25;;
15748;SDS011;7976;52.526;13.326;2023-03-01T10:16:21;13.63;;;4.47;;
15748;SDS011;7976;52.526;13.326;2023-03-01T10:19:00;14.93;;;5.28;;
15748;SDS011;7976;52.526;13.326;2023-03-01T10:21:31;14.50;;;4.82;;
15748;SDS011;7976;52.526;13.326;2023-03-01T10:24:11;10.43;;;4.25;;
15748;SDS011;7976;52.526;13.326;2023-03-01T10:26:50;11.73;;;5.35;;
15748;SDS011;7976;52.526;13.326;2023-03-01T10:29:23;12.48;;;4.60;;
15748;SDS011;7976;52.526;13.326;2023-03-01T10:32:00;13.57;;;4.57;;
15748;SDS011;7976;52.526;13.326;2023-03-01T10:34:32;16.27;;;4.97;;
15748;SDS011;7976;52.526;13.326;2023-03-01T10:37:04;15.18;;;6.38;;
15748;SDS011;7976;52.526;13.326;2023-03-01T10:39:37;13.88;;;5.13;;
15748;SDS011;7976;52.526;13.326;2023-03-01T10:42:26;13.18;;;5.00;;
15748;SDS011;7976;52.526;13.326;2023-03-01T10:44:56;29.77;;;14.73;;
15748;SDS011;7976;52.526;13.326;2023-03-01T10:47:25;27.38;;;12.45;;
15748;SDS011;7976;52.526;13.326;2023-03-01T10:49:55;22.60;;;8.80;;
15748;SDS011;7976;52.526;13.326;2023-03-01T10:52:27;14.75;;;5.95;;
15748;SDS011;7976;52.526;13.326;2023-03-01T10:54:58;14.07;;;4.55;;
15748;SDS011;7976;52.526;13.326;2023-03-01T10:57:31;13.23;;;4.18;;
15748;SDS011;7976;52.526;13.326;2023-03-01T11:00:14;10.65;;;3.70;;
15748;SDS011;7976;52.526;13.326;2023-03-01T11:02:49;12.25;;;4.03;;
15748;SDS011;7976;52.526;13.326;2023-03-01T11:05:28;15.80;;;4.70;;
15748;SDS011;7976;52.526;13.326;2023-03-01T11:07:59;14.02;;;4.15;;
15748;SDS011;7976;52.526;13.326;2023-03-01T11:10:28;12.70;;;4.00;;
15748;SDS011;7976;52.526;13.326;2023-03-01T11:13:08;13.10;;;4.40;;
15748;SDS011;7976;52.526;13.326;2023-03-01T11:15:42;13.05;;;4.13;;
15748;SDS011;7976;52.526;13.326;2023-03-01T11:18:25;11.57;;;4.32;;
15748;SDS011;7976;52.526;13.326;2023-03-01T11:20:53;9.73;;;3.65;;
15748;SDS011;7976;52.526;13.326;2023-03-01T11:23:23;12.15;;;3.90;;
15748;SDS011;7976;52.526;13.326;2023-03-01T11:25:52;11.50;;;3.60;;
15748;SDS011;7976;52.526;13.326;2023-03-01T11:28:26;12.80;;;4.32;;
15748;SDS011;7976;52.526;13.326;2023-03-01T11:30:55;11.57;;;4.10;;
15748;SDS011;7976;52.526;13.326;2023-03-01T11:33:33;13.13;;;3.75;;
15748;SDS011;7976;52.526;13.326;2023-03-01T11:36:13;11.30;;;3.63;;
15748;SDS011;7976;52.526;13.326;2023-03-01T11:38:50;9.43;;;2.97;;
15748;SDS011;7976;52.526;13.326;2023-03-01T11:41:19;9.52;;;3.30;;
15748;SDS011;7976;52.526;13.326;2023-03-01T11:43:52;11.00;;;3.78;;
15748;SDS011;7976;52.526;13.326;2023-03-01T11:49:46;11.57;;;3.38;;
15748;SDS011;7976;52.526;13.326;2023-03-01T11:52:37;10.30;;;3.17;;
15748;SDS011;7976;52.526;13.326;2023-03-01T11:55:24;14.75;;;5.05;;
15748;SDS011;7976;52.526;13.326;2023-03-01T11:58:10;13.18;;;4.03;;
15748;SDS011;7976;52.526;13.326;2023-03-01T12:01:06;11.18;;;3.38;;
15748;SDS011;7976;52.526;13.326;2023-03-01T12:04:05;10.57;;;4.13;;
15748;SDS011;7976;52.526;13.326;2023-03-01T12:07:20;12.23;;;2.80;;
15748;SDS011;7976;52.526;13.326;2023-03-01T12:10:19;13.95;;;4.90;;
15748;SDS011;7976;52.526;13.326;2023-03-01T12:12:56;10.90;;;3.85;;
15748;SDS011;7976;52.526;13.326;2023-03-01T12:15:57;16.58;;;6.47;;
15748;SDS011;7976;52.526;13.326;2023-03-01T12:18:52;12.10;;;3.85;;
15748;SDS011;7976;52.526;13.326;2023-03-01T12:21:53;19.90;;;7.78;;
15748;SDS011;7976;52.526;13.326;2023-03-01T12:24:51;14.18;;;4.05;;
15748;SDS011;7976;52.526;13.326;2023-03-01T12:27:56;14.40;;;4.88;;
15748;SDS011;7976;52.526;13.326;2023-03-01T12:31:03;11.00;;;3.63;;
15748;SDS011;7976;52.526;13.326;2023-03-01T12:34:07;11.65;;;3.90;;
15748;SDS011;7976;52.526;13.326;2023-03-01T12:37:00;10.43;;;3.88;;
15748;SDS011;7976;52.526;13.326;2023-03-01T12:39:51;10.40;;;3.65;;
15748;SDS011;7976;52.526;13.326;2023-03-01T12:42:39;9.15;;;2.90;;
15748;SDS011;7976;52.526;13.326;2023-03-01T12:45:26;10.70;;;3.17;;
15748;SDS011;7976;52.526;13.326;2023-03-01T12:48:24;9.23;;;2.95;;
15748;SDS011;7976;52.526;13.326;2023-03-01T12:51:06;10.57;;;2.85;;
15748;SDS011;7976;52.526;13.326;2023-03-01T12:53:40;10.38;;;3.08;;
15748;SDS011;7976;52.526;13.326;2023-03-01T12:56:13;9.75;;;3.38;;
15748;SDS011;7976;52.526;13.326;2023-03-01T12:58:46;9.95;;;3.20;;
15748;SDS011;7976;52.526;13.326;2023-03-01T13:01:29;8.82;;;2.95;;
15748;SDS011;7976;52.526;13.326;2023-03-01T13:04:16;10.30;;;3.33;;
15748;SDS011;7976;52.526;13.326;2023-03-01T13:06:55;10.90;;;3.53;;
15748;SDS011;7976;52.526;13.326;2023-03-01T13:09:39;10.48;;;3.30;;
15748;SDS011;7976;52.526;13.326;2023-03-01T13:15:28;12.15;;;4.35;;
15748;SDS011;7976;52.526;13.326;2023-03-01T13:18:01;11.98;;;3.55;;
15748;SDS011;7976;52.526;13.326;2023-03-01T13:20:52;8.05;;;2.92;;
15748;SDS011;7976;52.526;13.326;2023-03-01T13:23:26;14.35;;;3.38;;
15748;SDS011;7976;52.526;13.326;2023-03-01T13:26:04;8.65;;;3.00;;
15748;SDS011;7976;52.526;13.326;2023-03-01T13:28:47;8.88;;;3.10;;
15748;SDS011;7976;52.526;13.326;2023-03-01T13:37:29;8.93;;;2.85;;
15748;SDS011;7976;52.526;13.326;2023-03-01T13:40:00;9.63;;;3.08;;
15748;SDS011;7976;52.526;13.326;2023-03-01T13:42:50;9.25;;;2.90;;
15748;SDS011;7976;52.526;13.326;2023-03-01T13:45:21;8.02;;;2.28;;
15748;SDS011;7976;52.526;13.326;2023-03-01T13:48:01;9.05;;;2.70;;
15748;SDS011;7976;52.526;13.326;2023-03-01T13:50:37;8.10;;;2.67;;
15748;SDS011;7976;52.526;13.326;2023-03-01T13:53:16;13.73;;;4.72;;
15748;SDS011;7976;52.526;13.326;2023-03-01T13:55:46;10.27;;;2.70;;
15748;SDS011;7976;52.526;13.326;2023-03-01T13:58:21;10.10;;;3.08;;
15748;SDS011;7976;52.526;13.326;2023-03-01T14:00:58;10.38;;;3.15;;
15748;SDS011;7976;52.526;13.326;2023-03-01T14:03:28;10.02;;;3.08;;
15748;SDS011;7976;52.526;13.326;2023-03-01T14:05:59;14.40;;;4.75;;
15748;SDS011;7976;52.526;13.326;2023-03-01T14:08:34;9.98;;;3.33;;
15748;SDS011;7976;52.526;13.326;2023-03-01T14:14:40;10.63;;;3.10;;
15748;SDS011;7976;52.526;13.326;2023-03-01T14:17:21;8.88;;;3.00;;
15748;SDS011;7976;52.526;13.326;2023-03-01T14:20:16;9.00;;;2.85;;
15748;SDS011;7976;52.526;13.326;2023-03-01T14:22:47;7.30;;;2.53;;
15748;SDS011;7976;52.526;13.326;2023-03-01T14:25:24;13.57;;;5.18;;
15748;SDS011;7976;52.526;13.326;2023-03-01T14:27:58;15.70;;;6.70;;
15748;SDS011;7976;52.526;13.326;2023-03-01T14:30:31;16.27;;;5.43;;
15748;SDS011;7976;52.526;13.326;2023-03-01T14:33:04;12.88;;;4.05;;
15748;SDS011;7976;52.526;13.326;2023-03-01T14:35:51;9.13;;;2.40;;
15748;SDS011;7976;52.526;13.326;2023-03-01T14:38:21;8.98;;;3.00;;
15748;SDS011;7976;52.526;13.326;2023-03-01T14:40:56;10.60;;;2.88;;
15748;SDS011;7976;52.526;13.326;2023-03-01T14:43:27;11.82;;;3.90;;
15748;SDS011;7976;52.526;13.326;2023-03-01T14:45:56;10.32;;;3.13;;
15748;SDS011;7976;52.526;13.326;2023-03-01T14:48:24;11.48;;;3.13;;
15748;SDS011;7976;52.526;13.326;2023-03-01T14:50:53;10.80;;;2.60;;
15748;SDS011;7976;52.526;13.326;2023-03-01T14:53:21;12.40;;;3.17;;
15748;SDS011;7976;52.526;13.326;2023-03-01T14:55:53;13.20;;;3.38;;
15748;SDS011;7976;52.526;13.326;2023-03-01T14:58:27;11.30;;;3.30;;
15748;SDS011;7976;52.526;13.326;2023-03-01T15:00:55;7.68;;;2.30;;
15748;SDS011;7976;52.526;13.326;2023-03-01T15:03:27;10.38;;;2.40;;
15748;SDS011;7976;52.526;13.326;2023-03-01T15:06:02;8.70;;;2.22;;
15748;SDS011;7976;52.526;13.326;2023-03-01T15:08:32;14.93;;;4.93;;
15748;SDS011;7976;52.526;13.326;2023-03-01T15:11:05;17.95;;;7.05;;
15748;SDS011;7976;52.526;13.326;2023-03-01T15:13:47;24.52;;;9.55;;
15748;SDS011;7976;52.526;13.326;2023-03-01T15:16:15;11.55;;;3.15;;
15748;SDS011;7976;52.526;13.326;2023-03-01T15:18:46;9.30;;;2.67;;